Lorenton, Pennsylvania
Current Conditions -  °F | °C
As of 11:35 AM on Friday 19 Dec 2014 (Local Time) from KN38 Reporting Station
Overcast Overcast  
Wind Chill: 17°   Ceiling: 1700
Heat Index: 27°   Visibility: 10mi
Dew Point: 19°   Wind: 10mph
Humidity: 74%   Direction: 280°W
Pressure: 30.07"   Gusts: 17mph
Location:  41.533°N, 77.3132°W
Report Text: KN38 191635Z AUTO 28009G15KT 240V300 10SM OVC017 M03/M07 A3007 RMK AO2
Loading
Personal Weather Stations






























Interactive Weather Map New forecast layout! Learn more

10-Day Weather Forecast

Advertisements
Track Severe Weather on mobile